createdAt,value
2017-10-14T09:40:42.623Z,18.9
2017-10-14T09:41:50.084Z,18.8
2017-10-14T09:42:57.586Z,18.9
2017-10-14T09:44:05.050Z,18.9
2017-10-14T09:45:12.511Z,19
2017-10-14T09:46:19.975Z,19
2017-10-14T09:47:27.443Z,19.1
2017-10-14T09:48:34.904Z,19.1
2017-10-14T09:49:42.368Z,19.1
2017-10-14T09:50:49.831Z,19.3
2017-10-14T09:51:57.296Z,19.3
2017-10-14T09:53:04.417Z,19.4
2017-10-14T09:54:11.542Z,19.5
2017-10-14T09:55:18.659Z,19.5
2017-10-14T09:56:26.131Z,19.5
2017-10-14T09:57:33.591Z,19.7
2017-10-14T09:58:41.068Z,19.8
2017-10-14T09:59:48.530Z,20
2017-10-14T10:00:56.005Z,19.9
2017-10-14T10:02:03.474Z,19.9
2017-10-14T10:03:10.941Z,19.8
2017-10-14T10:04:18.413Z,19.9
2017-10-14T10:05:25.876Z,19.9
2017-10-14T10:06:47.928Z,19.9
2017-10-14T10:07:55.395Z,19.9
2017-10-14T10:09:02.858Z,20.1
2017-10-14T10:10:10.328Z,20.2
2017-10-14T10:11:17.794Z,20.1
2017-10-14T10:12:25.263Z,20.1
2017-10-14T10:13:32.736Z,20.1
2017-10-14T10:14:40.207Z,20.3
2017-10-14T10:15:47.681Z,20.2
2017-10-14T10:16:55.162Z,20.2
2017-10-14T10:18:02.631Z,20.2
2017-10-14T10:19:10.096Z,20.2
2017-10-14T10:20:16.909Z,20.2
2017-10-14T10:21:24.373Z,20.4
2017-10-14T10:22:31.497Z,20.5
2017-10-14T10:23:38.967Z,20.4
2017-10-14T10:24:46.435Z,20.6
2017-10-14T10:25:53.906Z,20.6
2017-10-14T10:27:01.377Z,20.6
2017-10-14T10:28:08.849Z,20.7
2017-10-14T10:29:16.319Z,20.9
2017-10-14T10:30:23.787Z,21
2017-10-14T10:31:31.258Z,21.1
2017-10-14T10:32:38.728Z,21.2
2017-10-14T10:33:45.854Z,21.3
2017-10-14T10:34:52.977Z,21.3
2017-10-14T10:36:00.446Z,21.2
2017-10-14T10:37:07.911Z,21.1
2017-10-14T10:38:15.382Z,20.9
2017-10-14T10:39:22.505Z,21
2017-10-14T10:40:29.628Z,21.1
2017-10-14T10:41:36.750Z,21.1
2017-10-14T10:42:44.224Z,21.1
2017-10-14T10:43:51.693Z,21.1
2017-10-14T10:44:59.163Z,21.1
2017-10-14T10:46:06.632Z,21
2017-10-14T10:47:14.100Z,20.9
2017-10-14T10:48:21.568Z,21.1
2017-10-14T10:49:29.046Z,21.4
2017-10-14T10:50:36.515Z,21.5
2017-10-14T10:51:43.985Z,21.6
2017-10-14T10:52:51.452Z,21.8
2017-10-14T10:53:58.922Z,21.7
2017-10-14T10:55:06.391Z,21.7
2017-10-14T10:56:13.861Z,21.6
2017-10-14T10:57:21.336Z,21.6
2017-10-14T10:58:28.804Z,21.8
2017-10-14T10:59:36.272Z,21.9
2017-10-14T11:00:43.735Z,22.1
2017-10-14T11:01:51.203Z,22.1
2017-10-14T11:02:58.672Z,22.2
2017-10-14T11:04:05.798Z,21.9
2017-10-14T11:05:13.271Z,21.9
2017-10-14T11:06:20.741Z,21.6
2017-10-14T11:07:28.205Z,21.5
2017-10-14T11:08:35.674Z,21.5
2017-10-14T11:09:43.143Z,21.6
2017-10-14T11:10:50.616Z,21.4
2017-10-14T11:11:57.738Z,21.5
2017-10-14T11:13:05.208Z,21.5
2017-10-14T11:14:12.679Z,21.7
2017-10-14T11:15:20.148Z,21.9
2017-10-14T11:16:27.618Z,22
2017-10-14T11:17:35.091Z,22.1
2017-10-14T11:18:42.563Z,21.9
2017-10-14T11:19:50.032Z,21.7
2017-10-14T11:20:57.157Z,21.5
2017-10-14T11:22:04.652Z,21.2
2017-10-14T11:23:12.118Z,21
2017-10-14T11:24:19.593Z,20.8
2017-10-14T11:25:27.062Z,20.7
2017-10-14T11:26:34.534Z,20.8
2017-10-14T11:27:42.006Z,21
2017-10-14T11:28:49.474Z,21.2
2017-10-14T11:29:56.946Z,21.6
2017-10-14T11:31:04.071Z,22
2017-10-14T11:32:11.191Z,22.3
2017-10-14T11:33:18.660Z,22.3
2017-10-14T11:34:26.134Z,21.9
2017-10-14T11:35:48.192Z,21.8
2017-10-14T11:36:55.669Z,21.6
2017-10-14T11:38:03.142Z,21.3
2017-10-14T11:39:10.608Z,21.2
2017-10-14T11:40:18.098Z,21.1
2017-10-14T11:41:25.565Z,21.1
2017-10-14T11:42:33.033Z,21
2017-10-14T11:43:40.504Z,20.8
2017-10-14T11:44:47.972Z,20.9
2017-10-14T11:45:55.441Z,21.1
2017-10-14T11:47:02.910Z,21.5
2017-10-14T11:48:10.384Z,21.9
2017-10-14T11:49:17.852Z,22.1
2017-10-14T11:50:25.317Z,21.9
2017-10-14T11:51:32.786Z,21.6
2017-10-14T11:52:40.250Z,21.3
2017-10-14T11:53:47.720Z,21.1
2017-10-14T11:54:54.839Z,21.3
2017-10-14T11:56:02.305Z,21.5
2017-10-14T11:57:09.782Z,21.9
2017-10-14T11:58:17.251Z,22.1
2017-10-14T11:59:24.372Z,22.1
2017-10-14T12:00:31.505Z,22.1
2017-10-14T12:01:38.972Z,22.2
2017-10-14T12:02:46.102Z,22.1
2017-10-14T12:04:08.160Z,22.2
2017-10-14T12:05:15.290Z,22.4
2017-10-14T12:06:22.416Z,22.5
2017-10-14T12:07:29.888Z,22.6
2017-10-14T12:08:37.358Z,22.7
2017-10-14T12:09:44.829Z,22.7
2017-10-14T12:10:52.299Z,22.8
2017-10-14T12:11:59.773Z,22.6
2017-10-14T12:13:07.239Z,22.6
2017-10-14T12:14:14.715Z,22.7
2017-10-14T12:15:22.182Z,22.6
2017-10-14T12:16:29.651Z,22.6
2017-10-14T12:17:37.120Z,22.6
2017-10-14T12:18:44.245Z,22.7
2017-10-14T12:19:51.721Z,22.8
2017-10-14T12:20:59.188Z,23
2017-10-14T12:22:06.664Z,23
2017-10-14T12:23:14.134Z,23.1
2017-10-14T12:24:21.603Z,23.1
2017-10-14T12:25:29.071Z,23.1
2017-10-14T12:26:36.542Z,22.9
2017-10-14T12:27:44.012Z,22.5
2017-10-14T12:28:51.156Z,22.1
2017-10-14T12:29:58.525Z,22.1
2017-10-14T12:31:05.982Z,22.1
2017-10-14T12:32:13.464Z,22.3
2017-10-14T12:33:20.933Z,22.6
2017-10-14T12:34:28.403Z,23
2017-10-14T12:35:35.876Z,23.3
2017-10-14T12:36:43.353Z,23.6
2017-10-14T12:37:50.831Z,23.8
2017-10-14T12:38:58.310Z,24
2017-10-14T12:40:05.786Z,23.9
2017-10-14T12:41:13.254Z,23.7
2017-10-14T12:42:20.723Z,23.7
2017-10-14T12:43:28.193Z,23.8
2017-10-14T12:44:35.661Z,23.7
2017-10-14T12:45:43.134Z,23.9
2017-10-14T12:46:50.612Z,24
2017-10-14T12:47:57.742Z,23.8
2017-10-14T12:49:04.877Z,23.9
2017-10-14T12:50:11.998Z,24
2017-10-14T12:51:19.125Z,24.1
2017-10-14T12:52:26.597Z,23.9
2017-10-14T12:53:34.086Z,23.8
2017-10-14T12:54:41.554Z,23.9
2017-10-14T12:55:49.042Z,24.1
2017-10-14T12:56:56.507Z,23.9
2017-10-14T12:58:03.979Z,23.7
2017-10-14T12:59:11.105Z,23.6
2017-10-14T13:00:18.577Z,23.6
2017-10-14T13:01:26.046Z,23.6
2017-10-14T13:02:33.517Z,23.5
2017-10-14T13:03:41.016Z,23.5
2017-10-14T13:04:48.485Z,23.6
2017-10-14T13:05:55.953Z,23.7
2017-10-14T13:07:03.431Z,23.6
2017-10-14T13:08:10.557Z,23.3
2017-10-14T13:09:18.028Z,23
2017-10-14T13:10:25.516Z,23.2
2017-10-14T13:11:32.982Z,23.5
2017-10-14T13:12:40.453Z,23.8
2017-10-14T13:13:47.930Z,23.9
2017-10-14T13:14:55.399Z,24
2017-10-14T13:16:02.868Z,23.9
2017-10-14T13:17:10.342Z,24
2017-10-14T13:18:17.815Z,24
2017-10-14T13:19:25.284Z,23.9
2017-10-14T13:20:32.751Z,23.9
2017-10-14T13:21:40.223Z,23.9
2017-10-14T13:22:47.698Z,24.1
2017-10-14T13:23:55.169Z,24
2017-10-14T13:25:02.641Z,23.9
2017-10-14T13:26:10.110Z,24.1
2017-10-14T13:27:17.582Z,23.9
2017-10-14T13:28:24.705Z,23.9
2017-10-14T13:29:32.176Z,24.1
2017-10-14T13:30:39.645Z,24.1
2017-10-14T13:31:47.121Z,24
2017-10-14T13:32:54.590Z,24.2
2017-10-14T13:34:02.059Z,24.1
2017-10-14T13:35:09.531Z,24.2
2017-10-14T13:36:17.034Z,24.4
2017-10-14T13:37:24.504Z,24.5
2017-10-14T13:38:31.982Z,24.5
2017-10-14T13:39:39.453Z,24.4
2017-10-14T13:40:46.921Z,24.5
2017-10-14T13:41:54.391Z,24.3
2017-10-14T13:43:01.869Z,24.3
2017-10-14T13:44:08.992Z,24.2
2017-10-14T13:45:16.464Z,24.2
2017-10-14T13:46:23.589Z,24
2017-10-14T13:47:31.054Z,24
2017-10-14T13:48:38.530Z,23.9
2017-10-14T13:49:46.002Z,24
2017-10-14T13:50:53.476Z,23.9
2017-10-14T13:52:00.605Z,24.1
2017-10-14T13:53:08.075Z,24.3
2017-10-14T13:54:15.547Z,24.3
2017-10-14T13:55:23.036Z,24.3
2017-10-14T13:56:30.508Z,24.3
2017-10-14T13:57:37.642Z,24.5
2017-10-14T13:58:45.112Z,24.5
2017-10-14T13:59:52.587Z,24.6
2017-10-14T14:00:59.711Z,24.5
2017-10-14T14:02:06.838Z,24.3
2017-10-14T14:03:14.514Z,24.1
2017-10-14T14:04:21.984Z,23.9
2017-10-14T14:05:29.452Z,24
2017-10-14T14:06:36.923Z,24
2017-10-14T14:07:44.395Z,24.1
2017-10-14T14:08:51.174Z,24.1
2017-10-14T14:09:58.646Z,24.2
2017-10-14T14:11:06.117Z,24.2
2017-10-14T14:12:13.586Z,24.1
2017-10-14T14:13:21.064Z,23.9
2017-10-14T14:14:28.194Z,23.8
2017-10-14T14:15:35.663Z,23.8
2017-10-14T14:16:43.132Z,23.9
2017-10-14T14:17:50.600Z,24
2017-10-14T14:18:58.069Z,23.9
2017-10-14T14:20:05.540Z,24
2017-10-14T14:21:13.009Z,23.9
2017-10-14T14:22:20.483Z,23.8
2017-10-14T14:23:27.977Z,23.6
2017-10-14T14:24:35.446Z,23.4
2017-10-14T14:25:42.920Z,23.3
2017-10-14T14:26:50.391Z,23.2
2017-10-14T14:27:57.876Z,23.2
2017-10-14T14:29:05.349Z,23.3
2017-10-14T14:30:12.822Z,23.3
2017-10-14T14:31:20.294Z,23.3
2017-10-14T14:32:27.769Z,23.3
2017-10-14T14:33:35.241Z,23.3
2017-10-14T14:34:42.712Z,23.3
2017-10-14T14:35:50.183Z,23.4
2017-10-14T14:36:57.655Z,23.5
2017-10-14T14:39:11.548Z,23.6
2017-10-14T14:40:18.675Z,23.6
2017-10-14T14:41:26.147Z,23.4
2017-10-14T14:42:33.852Z,23.4
2017-10-14T14:43:41.306Z,23.4
2017-10-14T14:44:48.779Z,23.3
2017-10-14T14:45:56.248Z,23.2
2017-10-14T14:47:03.381Z,23
2017-10-14T14:48:10.857Z,22.9
2017-10-14T14:49:18.000Z,22.8
2017-10-14T14:50:25.130Z,22.8
2017-10-14T14:51:32.605Z,22.8
2017-10-14T14:52:40.075Z,22.7
2017-10-14T14:53:47.543Z,22.6
2017-10-14T14:54:54.674Z,22.7
2017-10-14T14:56:02.144Z,22.5
2017-10-14T14:57:09.620Z,22.5
2017-10-14T14:58:17.091Z,22.5
2017-10-14T14:59:24.225Z,22.6
2017-10-14T15:00:31.701Z,22.6
2017-10-14T15:01:39.173Z,22.7
2017-10-14T15:02:46.645Z,22.7
2017-10-14T15:03:53.780Z,22.7
2017-10-14T15:05:00.909Z,22.6
2017-10-14T15:06:08.381Z,22.5
2017-10-14T15:07:15.856Z,22.5
2017-10-14T15:08:23.330Z,22.5
2017-10-14T15:09:30.801Z,22.5
2017-10-14T15:10:38.269Z,22.5
2017-10-14T15:11:45.744Z,22.5
2017-10-14T15:12:52.877Z,22.5
2017-10-14T15:14:00.340Z,22.5
2017-10-14T15:15:07.817Z,22.4
2017-10-14T15:16:15.300Z,22.3
2017-10-14T15:17:22.778Z,22.3
2017-10-14T15:18:30.255Z,22.3
2017-10-14T15:19:37.381Z,22.4
2017-10-14T15:20:44.852Z,22.4
2017-10-14T15:21:52.324Z,22.4
2017-10-14T15:22:59.794Z,22.4
2017-10-14T15:24:07.265Z,22.3
2017-10-14T15:25:29.326Z,22.2
2017-10-14T15:26:36.802Z,22
2017-10-14T15:27:44.272Z,21.8
2017-10-14T15:28:51.745Z,21.8
2017-10-14T15:29:59.217Z,21.8
2017-10-14T15:31:06.685Z,21.8
2017-10-14T15:32:14.167Z,21.6
2017-10-14T15:33:21.628Z,21.6
2017-10-14T15:34:29.099Z,21.5
2017-10-14T15:35:36.569Z,21.4
2017-10-14T15:36:44.036Z,21.3
2017-10-14T15:37:51.163Z,21.2
2017-10-14T15:38:58.635Z,21.1
2017-10-14T15:40:06.106Z,21.1
2017-10-14T15:41:13.233Z,21
2017-10-14T15:42:20.363Z,20.9
2017-10-14T15:43:27.840Z,20.8
2017-10-14T15:44:35.308Z,20.6
2017-10-14T15:45:42.442Z,20.5
2017-10-14T15:46:49.907Z,20.3
2017-10-14T15:47:57.031Z,20.2
2017-10-14T15:49:04.515Z,20.1
2017-10-14T15:50:11.630Z,20
2017-10-14T15:51:19.103Z,19.9
2017-10-14T15:52:26.226Z,19.8
2017-10-14T15:53:33.695Z,19.9
2017-10-14T15:54:40.819Z,19.9
2017-10-14T15:55:48.287Z,19.9
2017-10-14T15:56:55.077Z,19.9
2017-10-14T15:58:02.551Z,19.9
2017-10-14T15:59:10.034Z,19.8
2017-10-14T16:00:17.155Z,19.8
2017-10-14T16:01:24.622Z,19.7
2017-10-14T16:02:31.749Z,19.6
2017-10-14T16:03:39.236Z,19.6
2017-10-14T16:04:46.704Z,19.5
2017-10-14T16:05:54.177Z,19.5
2017-10-14T16:07:01.669Z,19.5
2017-10-14T16:08:09.140Z,19.4
2017-10-14T16:09:16.604Z,19.4
2017-10-14T16:10:24.077Z,19.3
2017-10-14T16:11:31.543Z,19.3
2017-10-14T16:12:39.013Z,19.2
2017-10-14T16:13:46.140Z,19.2
2017-10-14T16:14:53.608Z,19.1
2017-10-14T16:16:01.080Z,19
2017-10-14T16:17:08.550Z,18.9
2017-10-14T16:18:16.021Z,18.9
2017-10-14T16:19:23.149Z,18.8
2017-10-14T16:20:30.612Z,18.7
2017-10-14T16:21:38.084Z,18.7
2017-10-14T16:22:45.546Z,18.6
2017-10-14T16:23:53.030Z,18.6
2017-10-14T16:25:00.508Z,18.5
2017-10-14T16:26:07.979Z,18.5
2017-10-14T16:27:15.450Z,18.4
2017-10-14T16:28:22.914Z,18.4
2017-10-14T16:29:30.045Z,18.3
2017-10-14T16:30:37.514Z,18.3
2017-10-14T16:31:44.640Z,18.2
2017-10-14T16:32:52.105Z,18.2
2017-10-14T16:33:59.580Z,18.1
2017-10-14T16:35:07.045Z,18.1
2017-10-14T16:36:14.511Z,18
2017-10-14T16:37:21.980Z,18
2017-10-14T16:38:29.447Z,17.9
2017-10-14T16:39:36.569Z,17.9
2017-10-14T16:40:44.041Z,17.8
2017-10-14T16:41:51.506Z,17.7
2017-10-14T16:42:58.982Z,17.7
2017-10-14T16:44:06.451Z,17.6
2017-10-14T16:45:13.586Z,17.6
2017-10-14T16:46:20.708Z,17.5
2017-10-14T16:47:27.492Z,17.5
2017-10-14T16:48:34.999Z,17.4
2017-10-14T16:49:42.476Z,17.4
2017-10-14T16:50:49.956Z,17.4
2017-10-14T16:51:57.415Z,17.3
2017-10-14T16:53:04.882Z,17.3
2017-10-14T16:54:12.351Z,17.2
2017-10-14T16:55:19.817Z,17.1
2017-10-14T16:56:26.953Z,17.1
2017-10-14T16:57:34.416Z,17.1
2017-10-14T16:58:41.886Z,17
2017-10-14T16:59:49.356Z,16.9
2017-10-14T17:00:56.825Z,16.9
2017-10-14T17:02:04.298Z,16.9
2017-10-14T17:03:11.758Z,16.8
2017-10-14T17:04:19.220Z,16.7
2017-10-14T17:05:26.688Z,16.7
2017-10-14T17:06:34.152Z,16.6
2017-10-14T17:07:42.228Z,16.6
2017-10-14T17:08:49.352Z,16.6
2017-10-14T17:09:56.820Z,16.5
2017-10-14T17:11:03.596Z,16.5
2017-10-14T17:12:11.058Z,16.5
2017-10-14T17:13:18.521Z,16.4
2017-10-14T17:14:25.990Z,16.4
2017-10-14T17:15:33.455Z,16.3
2017-10-14T17:16:40.925Z,16.3
2017-10-14T17:17:48.391Z,16.3
2017-10-14T17:18:55.860Z,16.2
2017-10-14T17:20:03.329Z,16.2
2017-10-14T17:21:10.796Z,16.1
2017-10-14T17:22:18.268Z,16.1
2017-10-14T17:23:25.735Z,16
2017-10-14T17:24:33.204Z,16
2017-10-14T17:25:40.667Z,16
2017-10-14T17:26:48.134Z,15.9
2017-10-14T17:27:55.616Z,15.9
2017-10-14T17:29:03.084Z,15.8
2017-10-14T17:30:10.554Z,15.7
2017-10-14T17:31:18.017Z,15.7
2017-10-14T17:32:25.141Z,15.7
2017-10-14T17:33:32.261Z,15.7
2017-10-14T17:34:39.385Z,15.6
2017-10-14T17:35:46.867Z,15.5
2017-10-14T17:36:54.448Z,15.5
2017-10-14T17:38:01.570Z,15.5
2017-10-14T17:39:09.031Z,15.4
2017-10-14T17:40:16.499Z,15.4
2017-10-14T17:41:23.627Z,15.4
2017-10-14T17:42:31.089Z,15.3
2017-10-14T17:43:38.556Z,15.3
2017-10-14T17:44:46.022Z,15.3
2017-10-14T17:45:53.487Z,15.2
2017-10-14T17:47:00.953Z,15.2
2017-10-14T17:48:08.415Z,15.2
2017-10-14T17:49:15.880Z,15.1
2017-10-14T17:50:23.002Z,15.1
2017-10-14T17:51:30.479Z,15
2017-10-14T17:52:37.945Z,15
2017-10-14T17:53:45.067Z,15
2017-10-14T17:54:52.534Z,14.9
2017-10-14T17:55:59.996Z,14.9
2017-10-14T17:57:07.462Z,14.9
2017-10-14T17:58:14.923Z,14.8
2017-10-14T17:59:22.389Z,14.8
2017-10-14T18:00:29.855Z,14.8
2017-10-14T18:01:37.319Z,14.8
2017-10-14T18:02:44.798Z,14.7
2017-10-14T18:03:52.260Z,14.7
2017-10-14T18:04:59.746Z,14.7
2017-10-14T18:06:07.211Z,14.6
2017-10-14T18:07:14.682Z,14.6
2017-10-14T18:08:22.150Z,14.6
2017-10-14T18:09:29.630Z,14.6
2017-10-14T18:10:36.856Z,14.6
2017-10-14T18:11:44.321Z,14.5
2017-10-14T18:12:51.785Z,14.5
2017-10-14T18:13:59.476Z,14.5
2017-10-14T18:15:06.925Z,14.4
2017-10-14T18:16:14.693Z,14.4
2017-10-14T18:17:21.827Z,14.4
2017-10-14T18:18:29.303Z,14.3
2017-10-14T18:19:36.425Z,14.3
2017-10-14T18:20:43.890Z,14.3
2017-10-14T18:21:51.353Z,14.3
2017-10-14T18:22:58.816Z,14.2
2017-10-14T18:24:06.277Z,14.2
2017-10-14T18:25:13.747Z,14.2
2017-10-14T18:26:21.209Z,14.1
2017-10-14T18:27:28.675Z,14.1
2017-10-14T18:28:36.143Z,14.1
2017-10-14T18:29:43.613Z,14.1
2017-10-14T18:30:51.075Z,14.1
2017-10-14T18:31:58.192Z,14
2017-10-14T18:33:05.660Z,14
2017-10-14T18:34:13.127Z,13.9
2017-10-14T18:35:20.815Z,13.9
2017-10-14T18:36:28.294Z,13.9
2017-10-14T18:37:35.776Z,13.9
2017-10-14T18:38:43.246Z,13.9
2017-10-14T18:39:50.714Z,13.8
2017-10-14T18:40:58.180Z,13.8
2017-10-14T18:42:04.964Z,13.8
2017-10-14T18:43:12.431Z,13.7
2017-10-14T18:44:19.898Z,13.7
2017-10-14T18:45:27.360Z,13.7
2017-10-14T18:46:34.476Z,13.7
2017-10-14T18:47:41.945Z,13.7
2017-10-14T18:48:49.415Z,13.6
2017-10-14T18:49:56.538Z,13.6
2017-10-14T18:51:04.002Z,13.6
2017-10-14T18:52:11.472Z,13.6
2017-10-14T18:53:18.949Z,13.6
2017-10-14T18:54:26.406Z,13.5
2017-10-14T18:55:33.190Z,13.5
2017-10-14T18:56:40.654Z,13.5
2017-10-14T18:57:48.117Z,13.4
2017-10-14T18:58:55.578Z,13.4
2017-10-14T19:00:03.045Z,13.4
2017-10-14T19:01:10.517Z,13.4
2017-10-14T19:02:17.980Z,13.4
2017-10-14T19:03:25.452Z,13.4
2017-10-14T19:04:32.913Z,13.4
2017-10-14T19:05:40.381Z,13.3
2017-10-14T19:06:47.853Z,13.3
2017-10-14T19:07:55.352Z,13.3
2017-10-14T19:09:02.831Z,13.3
2017-10-14T19:10:09.943Z,13.3
2017-10-14T19:11:17.505Z,13.2
2017-10-14T19:12:24.972Z,13.2
2017-10-14T19:13:32.435Z,13.2
2017-10-14T19:14:39.901Z,13.2
2017-10-14T19:15:47.027Z,13.2
2017-10-14T19:16:54.498Z,13.2
2017-10-14T19:18:01.627Z,13.2
2017-10-14T19:19:09.083Z,13.1
2017-10-14T19:20:16.206Z,13.1
2017-10-14T19:21:23.673Z,13.1
2017-10-14T19:22:31.135Z,13.1
2017-10-14T19:23:38.602Z,13
2017-10-14T19:24:46.065Z,13
2017-10-14T19:25:53.530Z,13
2017-10-14T19:27:00.992Z,13
2017-10-14T19:28:08.453Z,12.9
2017-10-14T19:29:15.916Z,12.9
2017-10-14T19:30:23.384Z,12.9
2017-10-14T19:31:30.852Z,12.9
2017-10-14T19:32:38.314Z,12.9
2017-10-14T19:33:45.784Z,12.8
2017-10-14T19:34:53.247Z,12.8
2017-10-14T19:36:00.714Z,12.8
2017-10-14T19:37:08.182Z,12.8
2017-10-14T19:38:15.305Z,12.8
2017-10-14T19:39:22.772Z,12.7
2017-10-14T19:40:30.251Z,12.7
2017-10-14T19:41:37.720Z,12.7
2017-10-14T19:42:45.186Z,12.7
2017-10-14T19:43:52.656Z,12.6
2017-10-14T19:45:00.123Z,12.6
2017-10-14T19:46:07.584Z,12.6
2017-10-14T19:47:15.052Z,12.6
2017-10-14T19:48:22.519Z,12.6
2017-10-14T19:49:29.985Z,12.6
2017-10-14T19:50:37.080Z,12.5
2017-10-14T19:51:44.544Z,12.6
2017-10-14T19:52:52.007Z,12.5
2017-10-14T19:53:59.473Z,12.5
2017-10-14T19:55:06.940Z,12.5
2017-10-14T19:56:14.407Z,12.5
2017-10-14T19:57:21.871Z,12.5
2017-10-14T19:58:29.333Z,12.5
2017-10-14T19:59:36.797Z,12.5
2017-10-14T20:00:44.264Z,12.4
2017-10-14T20:01:51.732Z,12.4
2017-10-14T20:02:58.860Z,12.4
2017-10-14T20:04:06.348Z,12.4
2017-10-14T20:05:13.813Z,12.4
2017-10-14T20:06:21.277Z,12.4
2017-10-14T20:07:28.742Z,12.4
2017-10-14T20:08:36.205Z,12.3
2017-10-14T20:09:43.680Z,12.3
2017-10-14T20:10:51.145Z,12.3
2017-10-14T20:11:58.607Z,12.3
2017-10-14T20:13:06.072Z,12.3
2017-10-14T20:14:13.533Z,12.3
2017-10-14T20:15:20.998Z,12.3
2017-10-14T20:16:28.464Z,12.3
2017-10-14T20:17:35.998Z,12.2
2017-10-14T20:18:43.470Z,12.2
2017-10-14T20:19:50.935Z,12.2
2017-10-14T20:20:58.396Z,12.2
2017-10-14T20:22:05.525Z,12.2
2017-10-14T20:23:12.988Z,12.1
2017-10-14T20:24:20.105Z,12.1
2017-10-14T20:25:27.572Z,12.1
2017-10-14T20:26:35.036Z,12.1
2017-10-14T20:27:42.503Z,12.1
2017-10-14T20:28:49.975Z,12
2017-10-14T20:29:57.433Z,12
2017-10-14T20:31:04.897Z,12
2017-10-14T20:32:12.362Z,12
2017-10-14T20:33:19.915Z,12
2017-10-14T20:34:27.377Z,12
2017-10-14T20:35:34.837Z,12
2017-10-14T20:36:42.299Z,11.9
2017-10-14T20:37:49.423Z,12
2017-10-14T20:38:56.885Z,11.9
2017-10-14T20:40:04.346Z,11.9
2017-10-14T20:41:11.808Z,11.9
2017-10-14T20:42:19.270Z,11.9
2017-10-14T20:43:26.733Z,11.9
2017-10-14T20:44:34.218Z,11.9
2017-10-14T20:45:41.681Z,11.9
2017-10-14T20:46:49.144Z,11.9
2017-10-14T20:47:56.263Z,11.8
2017-10-14T20:49:03.729Z,11.8
2017-10-14T20:50:10.846Z,11.8
2017-10-14T20:51:18.309Z,11.8
2017-10-14T20:52:25.772Z,11.8
2017-10-14T20:53:33.235Z,11.7
2017-10-14T20:54:40.704Z,11.7
2017-10-14T20:55:48.166Z,11.7
2017-10-14T20:56:55.635Z,11.7
2017-10-14T20:58:03.098Z,11.7
2017-10-14T20:59:10.568Z,11.7
2017-10-14T21:00:18.033Z,11.6
2017-10-14T21:01:25.498Z,11.6
2017-10-14T21:02:32.620Z,11.6
2017-10-14T21:03:40.084Z,11.6
2017-10-14T21:04:47.200Z,11.6
2017-10-14T21:05:54.664Z,11.6
2017-10-14T21:07:02.123Z,11.5
2017-10-14T21:08:09.582Z,11.5
2017-10-14T21:09:17.050Z,11.5
2017-10-14T21:10:24.510Z,11.5
2017-10-14T21:11:31.983Z,11.5
2017-10-14T21:12:39.443Z,11.5
2017-10-14T21:13:46.563Z,11.5
2017-10-14T21:14:54.024Z,11.4
2017-10-14T21:16:01.150Z,11.4
2017-10-14T21:17:08.611Z,11.4
2017-10-14T21:18:16.074Z,11.4
2017-10-14T21:19:23.197Z,11.3
2017-10-14T21:20:30.663Z,11.4
2017-10-14T21:21:38.128Z,11.3
2017-10-14T21:22:45.590Z,11.3
2017-10-14T21:23:52.710Z,11.3
2017-10-14T21:25:00.171Z,11.3
2017-10-14T21:26:07.286Z,11.3
2017-10-14T21:27:14.404Z,11.3
2017-10-14T21:28:21.523Z,11.3
2017-10-14T21:29:28.987Z,11.2
2017-10-14T21:30:36.111Z,11.2
2017-10-14T21:31:43.575Z,11.2
2017-10-14T21:32:51.032Z,11.2
2017-10-14T21:33:58.490Z,11.2
2017-10-14T21:35:05.953Z,11.2
2017-10-14T21:36:13.411Z,11.2
2017-10-14T21:37:20.879Z,11.1
2017-10-14T21:38:28.338Z,11.1
2017-10-14T21:39:35.798Z,11.1
2017-10-14T21:40:43.267Z,11.1
2017-10-14T21:41:50.727Z,11.1
2017-10-14T21:42:58.185Z,11.1
2017-10-14T21:44:05.644Z,11
2017-10-14T21:45:13.101Z,11
2017-10-14T21:46:20.563Z,11
2017-10-14T21:47:28.025Z,11
2017-10-14T21:48:35.484Z,11
2017-10-14T21:49:42.944Z,11
2017-10-14T21:50:50.403Z,11
2017-10-14T21:51:57.865Z,11
2017-10-14T21:53:05.325Z,10.9
2017-10-14T21:54:12.812Z,10.9
2017-10-14T21:55:19.935Z,10.9
2017-10-14T21:56:27.395Z,10.9
2017-10-14T21:57:34.860Z,10.9
2017-10-14T21:58:41.975Z,10.9
2017-10-14T21:59:49.435Z,10.9
2017-10-14T22:00:56.552Z,10.9
2017-10-14T22:02:04.010Z,10.9
2017-10-14T22:03:11.474Z,10.9
2017-10-14T22:04:18.933Z,10.8
2017-10-14T22:05:26.392Z,10.8
2017-10-14T22:06:33.854Z,10.8
2017-10-14T22:07:41.318Z,10.7
2017-10-14T22:08:48.778Z,10.7
2017-10-14T22:09:55.898Z,10.7
2017-10-14T22:11:03.359Z,10.7
2017-10-14T22:12:10.830Z,10.7
2017-10-14T22:13:18.281Z,10.7
2017-10-14T22:14:25.759Z,10.7
2017-10-14T22:15:33.224Z,10.7
2017-10-14T22:16:40.685Z,10.7
2017-10-14T22:17:48.146Z,10.7
2017-10-14T22:18:55.607Z,10.7
2017-10-14T22:20:03.069Z,10.6
2017-10-14T22:21:10.527Z,10.6
2017-10-14T22:22:17.988Z,10.6
2017-10-14T22:23:25.108Z,10.6
2017-10-14T22:24:32.592Z,10.6
2017-10-14T22:25:40.064Z,10.6
2017-10-14T22:26:47.527Z,10.6
2017-10-14T22:27:54.986Z,10.6
2017-10-14T22:29:02.445Z,10.6
2017-10-14T22:30:09.905Z,10.6
2017-10-14T22:31:17.363Z,10.6
2017-10-14T22:32:24.826Z,10.6
2017-10-14T22:33:32.293Z,10.6
2017-10-14T22:34:39.416Z,10.6
2017-10-14T22:35:46.875Z,10.6
2017-10-14T22:36:54.339Z,10.5
2017-10-14T22:38:01.799Z,10.5
2017-10-14T22:39:09.270Z,10.5
2017-10-14T22:40:16.731Z,10.5
2017-10-14T22:41:24.190Z,10.5
2017-10-14T22:42:31.649Z,10.5
2017-10-14T22:43:39.119Z,10.5
2017-10-14T22:44:46.578Z,10.5
2017-10-14T22:45:54.039Z,10.5
2017-10-14T22:47:01.498Z,10.5
2017-10-14T22:48:08.962Z,10.5
2017-10-14T22:49:16.424Z,10.4
2017-10-14T22:50:23.888Z,10.4
2017-10-14T22:51:31.347Z,10.4
2017-10-14T22:52:38.804Z,10.5
2017-10-14T22:53:45.920Z,10.4
2017-10-14T22:54:53.379Z,10.4
2017-10-14T22:56:00.840Z,10.4
2017-10-14T22:57:07.965Z,10.4
2017-10-14T22:58:15.194Z,10.4
2017-10-14T22:59:22.656Z,10.4
2017-10-14T23:00:30.121Z,10.3
2017-10-14T23:01:37.585Z,10.3
2017-10-14T23:02:45.048Z,10.3
2017-10-14T23:03:52.164Z,10.3
2017-10-14T23:04:59.624Z,10.3
2017-10-14T23:06:07.083Z,10.3
2017-10-14T23:07:13.868Z,10.3
2017-10-14T23:08:21.331Z,10.3
2017-10-14T23:09:28.789Z,10.2
2017-10-14T23:10:35.920Z,10.2
2017-10-14T23:11:43.377Z,10.2
2017-10-14T23:12:50.838Z,10.2
2017-10-14T23:13:58.296Z,10.1
2017-10-14T23:15:05.767Z,10.1
2017-10-14T23:16:12.888Z,10.1
2017-10-14T23:17:20.001Z,10.1
2017-10-14T23:18:27.467Z,10.1
2017-10-14T23:19:34.585Z,10.1
2017-10-14T23:20:42.047Z,10.1
2017-10-14T23:21:49.160Z,10.1
2017-10-14T23:22:56.280Z,10
2017-10-14T23:24:03.743Z,10
2017-10-14T23:25:11.207Z,10
2017-10-14T23:26:18.322Z,10
2017-10-14T23:27:25.781Z,10
2017-10-14T23:28:33.248Z,10
2017-10-14T23:29:40.708Z,10
2017-10-14T23:30:48.171Z,10
2017-10-14T23:31:55.290Z,10
2017-10-14T23:33:02.754Z,10
2017-10-14T23:34:10.218Z,10
2017-10-14T23:35:17.680Z,10
2017-10-14T23:36:25.137Z,10
2017-10-14T23:37:32.606Z,9.9
2017-10-14T23:38:40.071Z,9.9
2017-10-14T23:39:47.524Z,9.9
2017-10-14T23:40:54.987Z,9.9
2017-10-14T23:42:02.445Z,9.9
2017-10-14T23:43:09.906Z,9.9
2017-10-14T23:44:17.365Z,9.9
2017-10-14T23:45:24.831Z,9.8
2017-10-14T23:46:32.281Z,9.8
2017-10-14T23:47:40.055Z,9.8
2017-10-14T23:48:47.500Z,9.8
2017-10-14T23:49:54.960Z,9.8
2017-10-14T23:51:02.417Z,9.8
2017-10-14T23:52:09.901Z,9.8
2017-10-14T23:53:17.362Z,9.8
2017-10-14T23:54:24.835Z,9.8
2017-10-14T23:55:32.495Z,9.8
2017-10-14T23:56:39.973Z,9.8
2017-10-14T23:57:47.436Z,9.8
2017-10-14T23:58:54.549Z,9.7
